createdAt,value
2018-09-17T00:01:01.287Z,70.50
2018-09-17T00:03:31.998Z,70.72
2018-09-17T00:06:02.617Z,70.88
2018-09-17T00:08:33.269Z,70.62
2018-09-17T00:11:03.971Z,70.48
2018-09-17T00:13:34.637Z,70.71
2018-09-17T00:16:05.271Z,71.14
2018-09-17T00:18:35.928Z,70.62
2018-09-17T00:21:06.627Z,70.59
2018-09-17T00:23:37.299Z,70.36
2018-09-17T00:26:08.024Z,70.90
2018-09-17T00:28:38.692Z,71.19
2018-09-17T00:31:09.397Z,70.86
2018-09-17T00:33:40.188Z,71.08
2018-09-17T00:36:10.866Z,70.97
2018-09-17T00:38:41.610Z,70.82
2018-09-17T00:41:12.369Z,70.94
2018-09-17T00:43:43.044Z,70.88
2018-09-17T00:46:13.742Z,71.10
2018-09-17T00:48:44.458Z,70.59
2018-09-17T00:51:15.933Z,70.45
2018-09-17T00:53:46.649Z,70.82
2018-09-17T00:56:17.336Z,70.92
2018-09-17T00:58:48.183Z,71.22
2018-09-17T01:01:19.004Z,71.10
2018-09-17T01:03:49.712Z,70.94
2018-09-17T01:06:20.543Z,70.05
2018-09-17T01:08:51.226Z,69.42
2018-09-17T01:11:21.977Z,69.46
2018-09-17T01:13:52.723Z,68.39
2018-09-17T01:16:23.511Z,68.10
2018-09-17T01:18:54.219Z,66.08
2018-09-17T01:21:25.011Z,64.83
2018-09-17T01:23:55.722Z,64.59
2018-09-17T01:26:26.448Z,64.46
2018-09-17T01:28:57.076Z,64.45
2018-09-17T01:31:27.828Z,64.85
2018-09-17T01:33:58.563Z,65.35
2018-09-17T01:36:29.263Z,66.49
2018-09-17T01:38:59.976Z,65.41
2018-09-17T01:41:30.646Z,65.89
2018-09-17T01:44:01.272Z,67.06
2018-09-17T01:46:31.981Z,67.11
2018-09-17T01:49:02.708Z,67.91
2018-09-17T01:51:33.398Z,68.07
2018-09-17T01:54:04.065Z,68.08
2018-09-17T01:56:34.733Z,67.99
2018-09-17T01:59:05.464Z,68.23
2018-09-17T02:01:36.123Z,67.65
2018-09-17T02:04:06.880Z,67.98
2018-09-17T02:06:37.548Z,68.59
2018-09-17T02:09:09.171Z,68.49
2018-09-17T02:11:40.052Z,68.64
2018-09-17T02:14:10.794Z,68.25
2018-09-17T02:16:41.478Z,67.91
2018-09-17T02:19:12.155Z,68.10
2018-09-17T02:21:42.832Z,68.58
2018-09-17T02:24:13.520Z,69.26
2018-09-17T02:26:44.143Z,68.66
2018-09-17T02:29:14.876Z,69.30
2018-09-17T02:31:45.567Z,69.27
2018-09-17T02:34:16.297Z,70.52
2018-09-17T02:36:46.984Z,70.31
2018-09-17T02:39:17.755Z,69.85
2018-09-17T02:41:48.441Z,69.70
2018-09-17T02:44:19.151Z,69.76
2018-09-17T02:46:49.850Z,69.44
2018-09-17T02:49:20.708Z,69.42
2018-09-17T02:51:51.364Z,69.67
2018-09-17T02:54:22.084Z,69.30
2018-09-17T02:56:52.884Z,69.23
2018-09-17T02:59:23.601Z,69.09
2018-09-17T03:01:54.343Z,69.19
2018-09-17T03:04:25.027Z,70.35
2018-09-17T03:06:55.729Z,70.47
2018-09-17T03:09:26.590Z,70.85
2018-09-17T03:11:57.304Z,70.66
2018-09-17T03:14:30.574Z,71.13
2018-09-17T03:17:12.296Z,71.50
2018-09-17T03:19:44.058Z,71.59
2018-09-17T03:22:15.427Z,71.68
2018-09-17T03:24:46.132Z,71.91
2018-09-17T03:27:16.814Z,71.80
2018-09-17T03:29:47.560Z,71.83
2018-09-17T03:32:18.363Z,71.91
2018-09-17T03:34:49.053Z,72.06
2018-09-17T03:37:20.055Z,72.34
2018-09-17T03:39:50.770Z,72.98
2018-09-17T03:42:21.467Z,73.07
2018-09-17T03:44:52.176Z,72.80
2018-09-17T03:47:22.952Z,72.08
2018-09-17T03:49:53.624Z,72.31
2018-09-17T03:52:24.916Z,72.58
2018-09-17T03:54:55.635Z,72.92
2018-09-17T03:57:26.302Z,72.83
2018-09-17T03:59:57.051Z,72.70
2018-09-17T04:02:27.916Z,72.69
2018-09-17T04:04:58.636Z,72.71
2018-09-17T04:07:29.442Z,72.57
2018-09-17T04:10:00.146Z,72.34
2018-09-17T04:12:31.007Z,71.87
2018-09-17T04:15:01.886Z,71.99
2018-09-17T04:17:32.569Z,71.80
2018-09-17T04:20:03.337Z,71.83
2018-09-17T04:22:34.026Z,72.09
2018-09-17T04:25:04.767Z,72.02
2018-09-17T04:27:35.392Z,72.52
2018-09-17T04:30:06.256Z,72.89
2018-09-17T04:32:37.010Z,72.98
2018-09-17T04:35:08.340Z,72.49
2018-09-17T04:37:39.885Z,72.93
2018-09-17T04:40:10.648Z,73.03
2018-09-17T04:42:41.355Z,73.08
2018-09-17T04:45:12.117Z,73.18
2018-09-17T04:47:42.841Z,73.52
2018-09-17T04:50:13.534Z,73.13
2018-09-17T04:52:44.185Z,72.56
2018-09-17T04:55:14.872Z,72.52
2018-09-17T04:57:45.505Z,72.19
2018-09-17T05:00:16.207Z,72.29
2018-09-17T05:02:46.940Z,72.39
2018-09-17T05:05:17.687Z,72.15
2018-09-17T05:07:48.366Z,72.97
2018-09-17T05:10:19.032Z,73.20
2018-09-17T05:12:49.854Z,73.51
2018-09-17T05:15:20.644Z,73.92
2018-09-17T05:17:51.328Z,73.95
2018-09-17T05:20:21.996Z,73.40
2018-09-17T05:22:52.663Z,73.06
2018-09-17T05:25:23.345Z,73.41
2018-09-17T05:27:54.055Z,72.92
2018-09-17T05:30:24.771Z,72.28
2018-09-17T05:32:55.446Z,72.12
2018-09-17T05:35:26.227Z,71.56
2018-09-17T05:37:56.983Z,72.24
2018-09-17T05:40:27.679Z,72.37
2018-09-17T05:42:58.439Z,72.02
2018-09-17T05:45:29.127Z,72.15
2018-09-17T05:47:59.746Z,71.95
2018-09-17T05:50:30.592Z,71.87
2018-09-17T05:53:01.295Z,72.00
2018-09-17T05:55:32.132Z,72.24
2018-09-17T05:58:02.880Z,72.13
2018-09-17T06:00:33.803Z,72.23
2018-09-17T06:03:04.598Z,72.07
2018-09-17T06:05:35.509Z,71.86
2018-09-17T06:08:06.211Z,71.74
2018-09-17T06:10:36.939Z,71.00
2018-09-17T06:13:07.644Z,70.61
2018-09-17T06:15:38.421Z,70.59
2018-09-17T06:18:09.145Z,70.12
2018-09-17T06:20:39.893Z,69.79
2018-09-17T06:23:10.639Z,68.62
2018-09-17T06:25:41.414Z,68.24
2018-09-17T06:28:12.297Z,67.46
2018-09-17T06:30:43.024Z,67.11
2018-09-17T06:33:13.818Z,66.46
2018-09-17T06:35:44.535Z,66.28
2018-09-17T06:38:15.292Z,65.63
2018-09-17T06:40:46.072Z,64.56
2018-09-17T06:43:16.806Z,63.52
2018-09-17T06:45:52.751Z,62.47
2018-09-17T06:48:23.455Z,61.92
2018-09-17T06:50:54.152Z,60.80
2018-09-17T06:53:24.907Z,60.38
2018-09-17T06:55:55.663Z,59.45
2018-09-17T06:58:26.380Z,59.29
2018-09-17T07:00:57.142Z,57.79
2018-09-17T07:03:28.007Z,56.67
2018-09-17T07:05:58.756Z,56.01
2018-09-17T07:08:29.496Z,55.30
2018-09-17T07:11:00.217Z,54.25
2018-09-17T07:13:30.931Z,53.54
2018-09-17T07:16:01.643Z,52.89
2018-09-17T07:18:32.570Z,51.64
2018-09-17T07:21:03.316Z,51.20
2018-09-17T07:23:34.432Z,50.02
2018-09-17T07:26:06.103Z,48.63
2018-09-17T07:28:36.912Z,48.26
2018-09-17T07:31:12.933Z,46.52
2018-09-17T07:33:43.708Z,47.08
2018-09-17T07:36:14.475Z,45.92
2018-09-17T07:38:45.250Z,46.81
2018-09-17T07:41:16.313Z,45.67
2018-09-17T07:43:47.013Z,44.35
2018-09-17T07:46:17.790Z,43.19
2018-09-17T07:48:48.485Z,43.11
2018-09-17T07:51:19.351Z,41.78
2018-09-17T07:53:50.059Z,41.72
2018-09-17T07:56:20.804Z,40.63
2018-09-17T07:58:51.526Z,39.46
2018-09-17T08:01:22.196Z,39.53
2018-09-17T08:03:52.844Z,38.85
2018-09-17T08:06:23.556Z,39.54
2018-09-17T08:08:54.252Z,38.42
2018-09-17T08:11:25.005Z,34.84
2018-09-17T08:13:55.677Z,35.37
2018-09-17T08:16:26.383Z,35.18
2018-09-17T08:18:57.045Z,36.22
2018-09-17T08:21:27.696Z,36.62
2018-09-17T08:23:58.339Z,35.40
2018-09-17T08:26:29.016Z,34.75
2018-09-17T08:28:59.678Z,34.92
2018-09-17T08:31:30.331Z,35.38
2018-09-17T08:34:01.124Z,34.62
2018-09-17T08:36:31.777Z,36.28
2018-09-17T08:39:02.695Z,35.75
2018-09-17T08:41:33.385Z,36.06
2018-09-17T08:44:04.159Z,36.94
2018-09-17T08:46:34.903Z,36.37
2018-09-17T08:49:05.799Z,35.67
2018-09-17T08:51:36.492Z,35.25
2018-09-17T08:54:07.355Z,33.72
2018-09-17T08:56:43.193Z,33.87
2018-09-17T08:59:18.925Z,32.27
2018-09-17T09:01:54.808Z,33.09
2018-09-17T09:04:31.544Z,32.20
2018-09-17T09:07:07.397Z,32.45
2018-09-17T09:09:38.072Z,31.89
2018-09-17T09:12:13.967Z,31.44
2018-09-17T09:14:44.820Z,31.17
2018-09-17T09:17:15.530Z,30.69
2018-09-17T09:19:46.289Z,30.51
2018-09-17T09:22:17.028Z,30.29
2018-09-17T09:24:47.785Z,29.70
2018-09-17T09:27:18.524Z,28.42
2018-09-17T09:29:49.239Z,28.98
2018-09-17T09:32:20.027Z,28.96
2018-09-17T09:34:50.855Z,28.65
2018-09-17T09:37:21.525Z,28.35
2018-09-17T09:39:52.249Z,29.44
2018-09-17T09:42:26.173Z,30.46
2018-09-17T09:44:56.869Z,30.23
2018-09-17T09:47:27.605Z,32.00
2018-09-17T09:49:58.296Z,30.77
2018-09-17T09:52:28.990Z,30.60
2018-09-17T09:54:59.693Z,30.44
2018-09-17T09:57:30.373Z,30.22
2018-09-17T10:00:01.042Z,30.59
2018-09-17T10:02:35.854Z,29.82
2018-09-17T10:05:07.093Z,29.71
2018-09-17T10:07:37.840Z,29.03
2018-09-17T10:10:13.852Z,28.12
2018-09-17T10:12:49.668Z,28.94
2018-09-17T10:16:25.263Z,29.48
2018-09-17T10:19:01.084Z,28.78
2018-09-17T10:21:31.805Z,30.28
2018-09-17T10:24:02.503Z,28.81
2018-09-17T10:26:33.219Z,28.61
2018-09-17T10:29:03.977Z,27.74
2018-09-17T10:31:34.736Z,28.59
2018-09-17T10:34:05.435Z,29.00
2018-09-17T10:36:36.621Z,27.65
2018-09-17T10:39:11.295Z,27.73
2018-09-17T10:41:41.975Z,26.86
2018-09-17T10:44:12.714Z,27.08
2018-09-17T10:46:43.426Z,27.12
2018-09-17T10:49:14.115Z,27.00
2018-09-17T10:51:44.817Z,26.92
2018-09-17T10:54:15.565Z,26.72
2018-09-17T10:56:46.309Z,26.37
2018-09-17T10:59:16.993Z,25.70
2018-09-17T11:01:47.745Z,25.75
2018-09-17T11:04:18.416Z,25.25
2018-09-17T11:06:49.211Z,25.44
2018-09-17T11:09:20.060Z,25.48
2018-09-17T11:11:50.872Z,24.46
2018-09-17T11:14:21.537Z,24.36
2018-09-17T11:16:52.202Z,24.60
2018-09-17T11:19:22.865Z,23.61
2018-09-17T11:21:53.516Z,23.66
2018-09-17T11:24:24.153Z,23.53
2018-09-17T11:26:54.843Z,23.65
2018-09-17T11:29:25.574Z,24.31
2018-09-17T11:31:56.267Z,22.96
2018-09-17T11:34:26.938Z,24.25
2018-09-17T11:36:57.639Z,24.00
2018-09-17T11:39:28.308Z,23.20
2018-09-17T11:41:59.032Z,23.95
2018-09-17T11:44:29.744Z,24.19
2018-09-17T11:47:00.401Z,24.99
2018-09-17T11:49:31.143Z,23.53
2018-09-17T11:52:01.793Z,23.71
2018-09-17T11:54:32.539Z,23.91
2018-09-17T11:57:03.196Z,22.52
2018-09-17T11:59:33.877Z,23.27
2018-09-17T12:02:04.656Z,22.64
2018-09-17T12:04:40.647Z,21.18
2018-09-17T12:07:16.861Z,22.48
2018-09-17T12:09:47.548Z,22.12
2018-09-17T12:12:18.305Z,22.58
2018-09-17T12:14:48.991Z,21.77
2018-09-17T12:17:19.666Z,21.35
2018-09-17T12:19:50.302Z,21.29
2018-09-17T12:22:20.926Z,20.39
2018-09-17T12:24:51.584Z,20.28
2018-09-17T12:27:22.283Z,20.46
2018-09-17T12:29:53.007Z,20.19
2018-09-17T12:32:23.670Z,18.91
2018-09-17T12:34:54.402Z,18.69
2018-09-17T12:37:25.046Z,20.47
2018-09-17T12:39:55.794Z,18.85
2018-09-17T12:42:26.494Z,19.56
2018-09-17T12:44:57.206Z,20.56
2018-09-17T12:47:27.859Z,18.77
2018-09-17T12:49:58.571Z,20.80
2018-09-17T12:52:29.320Z,20.92
2018-09-17T12:55:30.615Z,21.00
2018-09-17T12:58:01.292Z,18.17
2018-09-17T13:00:31.992Z,19.30
2018-09-17T13:03:02.687Z,20.56
2018-09-17T13:05:33.371Z,21.58
2018-09-17T13:08:04.039Z,19.50
2018-09-17T13:10:34.823Z,19.52
2018-09-17T13:13:05.528Z,20.33
2018-09-17T13:15:40.236Z,20.39
2018-09-17T13:18:10.936Z,19.88
2018-09-17T13:20:41.551Z,20.19
2018-09-17T13:23:12.316Z,21.20
2018-09-17T13:25:43.049Z,19.68
2018-09-17T13:28:13.903Z,21.29
2018-09-17T13:30:44.602Z,19.58
2018-09-17T13:33:15.341Z,19.57
2018-09-17T13:35:46.032Z,19.08
2018-09-17T13:38:16.735Z,20.19
2018-09-17T13:40:47.479Z,20.79
2018-09-17T13:43:18.208Z,19.92
2018-09-17T13:45:49.024Z,20.20
2018-09-17T13:48:20.024Z,19.42
2018-09-17T13:50:50.735Z,18.69
2018-09-17T13:53:21.490Z,19.03
2018-09-17T13:55:52.123Z,20.25
2018-09-17T13:58:22.850Z,19.88
2018-09-17T14:00:53.599Z,19.83
2018-09-17T14:03:24.343Z,19.55
2018-09-17T14:05:55.053Z,20.09
2018-09-17T14:08:25.792Z,20.00
2018-09-17T14:10:56.486Z,18.32
2018-09-17T14:13:27.211Z,19.77
2018-09-17T14:16:02.098Z,18.91
2018-09-17T14:18:33.175Z,19.48
2018-09-17T14:21:03.848Z,18.54
2018-09-17T14:23:34.862Z,19.55
2018-09-17T14:26:05.630Z,18.94
2018-09-17T14:28:36.268Z,19.39
2018-09-17T14:31:07.180Z,18.92
2018-09-17T14:33:40.463Z,19.33
2018-09-17T14:36:11.157Z,19.34
2018-09-17T14:38:41.811Z,20.90
2018-09-17T14:41:12.461Z,19.62
2018-09-17T14:43:43.355Z,19.55
2018-09-17T14:46:13.989Z,19.84
2018-09-17T14:48:44.771Z,18.44
2018-09-17T14:51:15.483Z,19.46
2018-09-17T14:53:46.119Z,19.31
2018-09-17T14:56:16.885Z,18.22
2018-09-17T14:58:47.559Z,19.00
2018-09-17T15:01:18.283Z,16.68
2018-09-17T15:03:50.323Z,17.07
2018-09-17T15:06:21.015Z,17.25
2018-09-17T15:08:51.747Z,18.30
2018-09-17T15:11:22.408Z,18.79
2018-09-17T15:13:53.189Z,19.39
2018-09-17T15:16:23.942Z,17.56
2018-09-17T15:18:54.907Z,17.98
2018-09-17T15:21:25.585Z,17.34
2018-09-17T15:23:56.359Z,17.42
2018-09-17T15:26:27.246Z,17.56
2018-09-17T15:28:58.082Z,19.33
2018-09-17T15:31:28.832Z,18.98
2018-09-17T15:33:59.610Z,19.19
2018-09-17T15:36:30.323Z,19.80
2018-09-17T15:39:00.997Z,19.06
2018-09-17T15:41:32.824Z,17.66
2018-09-17T15:44:03.514Z,17.63
2018-09-17T15:46:34.198Z,16.78
2018-09-17T15:49:04.974Z,17.45
2018-09-17T15:51:35.759Z,17.18
2018-09-17T15:54:06.479Z,16.73
2018-09-17T15:56:37.223Z,17.45
2018-09-17T15:59:07.887Z,18.15
2018-09-17T16:01:38.655Z,18.57
2018-09-17T16:04:09.312Z,19.06
2018-09-17T16:06:39.971Z,18.27
2018-09-17T16:09:10.627Z,18.66
2018-09-17T16:11:41.307Z,19.32
2018-09-17T16:14:12.154Z,19.24
2018-09-17T16:16:42.752Z,19.03
2018-09-17T16:19:13.567Z,19.30
2018-09-17T16:22:00.090Z,19.54
2018-09-17T16:24:39.804Z,18.45
2018-09-17T16:27:10.639Z,19.25
2018-09-17T16:29:41.382Z,19.32
2018-09-17T16:32:12.119Z,19.89
2018-09-17T16:34:42.869Z,19.89
2018-09-17T16:37:13.977Z,21.43
2018-09-17T16:39:44.701Z,20.34
2018-09-17T16:42:15.521Z,20.65
2018-09-17T16:44:46.250Z,21.25
2018-09-17T16:47:17.043Z,23.23
2018-09-17T16:49:47.766Z,23.37
2018-09-17T16:52:18.420Z,23.43
2018-09-17T16:54:49.150Z,24.89
2018-09-17T16:57:19.923Z,25.92
2018-09-17T16:59:50.721Z,25.65
2018-09-17T17:02:21.583Z,26.59
2018-09-17T17:04:52.435Z,26.32
2018-09-17T17:07:23.123Z,27.50
2018-09-17T17:09:53.837Z,28.56
2018-09-17T17:12:24.540Z,29.37
2018-09-17T17:14:55.258Z,29.66
2018-09-17T17:17:25.987Z,30.08
2018-09-17T17:19:56.679Z,30.28
2018-09-17T17:22:27.372Z,30.95
2018-09-17T17:24:58.074Z,31.62
2018-09-17T17:27:28.781Z,31.90
2018-09-17T17:29:59.532Z,32.11
2018-09-17T17:32:30.232Z,33.09
2018-09-17T17:35:00.934Z,33.19
2018-09-17T17:37:31.647Z,33.66
2018-09-17T17:40:02.494Z,34.34
2018-09-17T17:42:33.043Z,34.45
2018-09-17T17:45:03.760Z,34.81
2018-09-17T17:47:34.436Z,35.10
2018-09-17T17:50:05.837Z,35.71
2018-09-17T17:52:36.543Z,35.98
2018-09-17T17:55:07.473Z,36.22
2018-09-17T17:57:38.204Z,36.05
2018-09-17T18:00:10.820Z,36.35
2018-09-17T18:02:41.553Z,36.91
2018-09-17T18:05:12.230Z,37.26
2018-09-17T18:07:43.014Z,37.11
2018-09-17T18:10:14.101Z,37.82
2018-09-17T18:12:45.058Z,37.81
2018-09-17T18:15:15.892Z,37.81
2018-09-17T18:17:46.559Z,38.24
2018-09-17T18:20:17.388Z,38.14
2018-09-17T18:22:48.193Z,38.44
2018-09-17T18:25:19.856Z,39.16
2018-09-17T18:27:50.511Z,39.09
2018-09-17T18:30:21.242Z,39.57
2018-09-17T18:32:51.933Z,39.49
2018-09-17T18:35:22.934Z,39.49
2018-09-17T18:37:53.679Z,40.21
2018-09-17T18:40:24.351Z,39.57
2018-09-17T18:42:55.118Z,40.63
2018-09-17T18:45:25.899Z,40.36
2018-09-17T18:47:56.847Z,40.33
2018-09-17T18:50:27.652Z,40.56
2018-09-17T18:52:58.352Z,41.24
2018-09-17T18:55:29.140Z,41.03
2018-09-17T18:57:59.916Z,41.18
2018-09-17T19:00:30.657Z,40.22
2018-09-17T19:03:01.409Z,40.79
2018-09-17T19:05:32.083Z,40.94
2018-09-17T19:08:02.800Z,39.98
2018-09-17T19:10:36.134Z,41.20
2018-09-17T19:13:06.985Z,40.51
2018-09-17T19:15:42.897Z,40.87
2018-09-17T19:18:18.728Z,41.24
2018-09-17T19:20:50.516Z,41.75
2018-09-17T19:24:29.688Z,42.30
2018-09-17T19:27:00.456Z,42.39
2018-09-17T19:29:31.136Z,41.88
2018-09-17T19:32:01.947Z,41.67
2018-09-17T19:34:32.628Z,41.77
2018-09-17T19:37:08.568Z,42.35
2018-09-17T19:39:44.315Z,40.82
2018-09-17T19:42:15.172Z,43.59
2018-09-17T19:44:51.063Z,41.93
2018-09-17T19:47:21.708Z,41.42
2018-09-17T19:49:52.476Z,42.11
2018-09-17T19:52:24.570Z,44.27
2018-09-17T19:54:55.538Z,42.27
2018-09-17T19:57:31.497Z,43.03
2018-09-17T20:00:02.216Z,42.73
2018-09-17T20:02:32.978Z,40.57
2018-09-17T20:05:08.978Z,41.15
2018-09-17T20:07:39.654Z,41.99
2018-09-17T20:10:10.449Z,42.96
2018-09-17T20:12:41.175Z,41.72
2018-09-17T20:15:11.931Z,43.07
2018-09-17T20:17:42.612Z,41.91
2018-09-17T20:20:13.368Z,42.47
2018-09-17T20:22:44.031Z,42.76
2018-09-17T20:25:15.411Z,42.46
2018-09-17T20:27:46.097Z,42.15
2018-09-17T20:30:16.812Z,42.14
2018-09-17T20:32:47.536Z,42.98
2018-09-17T20:35:18.696Z,43.05
2018-09-17T20:37:49.410Z,43.41
2018-09-17T20:40:20.172Z,43.03
2018-09-17T20:42:51.294Z,42.64
2018-09-17T20:45:22.000Z,43.17
2018-09-17T20:47:52.735Z,42.78
2018-09-17T20:50:23.380Z,42.78
2018-09-17T20:52:54.066Z,43.06
2018-09-17T20:55:24.803Z,43.42
2018-09-17T20:57:55.446Z,43.05
2018-09-17T21:00:26.131Z,43.15
2018-09-17T21:02:56.785Z,42.97
2018-09-17T21:05:27.444Z,43.30
2018-09-17T21:07:58.097Z,43.37
2018-09-17T21:10:28.799Z,44.17
2018-09-17T21:12:59.449Z,44.09
2018-09-17T21:15:30.091Z,44.38
2018-09-17T21:18:00.871Z,45.46
2018-09-17T21:20:31.525Z,44.98
2018-09-17T21:23:02.236Z,44.81
2018-09-17T21:25:33.009Z,44.82
2018-09-17T21:28:03.770Z,44.79
2018-09-17T21:30:34.796Z,44.35
2018-09-17T21:33:05.453Z,45.65
2018-09-17T21:35:36.191Z,45.35
2018-09-17T21:38:06.853Z,45.03
2018-09-17T21:40:37.532Z,44.85
2018-09-17T21:43:08.223Z,44.87
2018-09-17T21:45:39.399Z,45.36
2018-09-17T21:48:10.054Z,45.16
2018-09-17T21:50:40.710Z,45.69
2018-09-17T21:53:11.417Z,45.19
2018-09-17T21:55:42.097Z,45.63
2018-09-17T21:58:12.766Z,45.62
2018-09-17T22:00:48.728Z,45.14
2018-09-17T22:03:19.408Z,45.80
2018-09-17T22:05:50.199Z,45.27
2018-09-17T22:08:20.894Z,45.20
2018-09-17T22:10:51.581Z,45.01
2018-09-17T22:13:22.431Z,44.95
2018-09-17T22:15:53.110Z,44.75
2018-09-17T22:18:23.752Z,45.27
2018-09-17T22:20:54.428Z,44.77
2018-09-17T22:23:25.064Z,44.76
2018-09-17T22:25:55.761Z,44.89
2018-09-17T22:28:26.964Z,44.98
2018-09-17T22:30:57.623Z,44.97
2018-09-17T22:33:28.305Z,44.96
2018-09-17T22:35:59.000Z,44.84
2018-09-17T22:38:29.661Z,44.93
2018-09-17T22:41:00.362Z,44.75
2018-09-17T22:43:31.060Z,45.01
2018-09-17T22:46:01.725Z,45.17
2018-09-17T22:48:32.374Z,44.92
2018-09-17T22:51:02.999Z,44.85
2018-09-17T22:53:33.639Z,44.65
2018-09-17T22:56:04.339Z,44.76
2018-09-17T22:58:35.091Z,44.66
2018-09-17T23:01:05.860Z,44.38
2018-09-17T23:03:36.555Z,44.29
2018-09-17T23:06:07.286Z,44.22
2018-09-17T23:08:37.931Z,44.07
2018-09-17T23:11:08.564Z,44.06
2018-09-17T23:13:39.177Z,44.29
2018-09-17T23:16:09.836Z,44.58
2018-09-17T23:18:40.479Z,44.53
2018-09-17T23:21:11.135Z,44.56
2018-09-17T23:23:41.804Z,44.81
2018-09-17T23:26:12.459Z,45.25
2018-09-17T23:28:43.101Z,45.75
2018-09-17T23:31:13.751Z,45.50
2018-09-17T23:33:44.390Z,45.91
2018-09-17T23:36:15.065Z,45.26
2018-09-17T23:38:45.687Z,45.17
2018-09-17T23:41:16.324Z,45.11
2018-09-17T23:43:47.111Z,44.78
2018-09-17T23:46:17.760Z,44.95
2018-09-17T23:48:48.400Z,44.82
2018-09-17T23:51:19.132Z,44.32
2018-09-17T23:53:49.788Z,43.99
2018-09-17T23:56:20.405Z,44.58
2018-09-17T23:58:51.106Z,44.63
